sensor_id;sensor_type;location;lat;lon;timestamp;P1;P2;P0
45990;PMS5003;31721;41.740;-88.000;2023-07-31T00:01:45;2;2;
45990;PMS5003;31721;41.740;-88.000;2023-07-31T00:04:12;2;2;
45990;PMS5003;31721;41.740;-88.000;2023-07-31T00:06:40;4;4;
45990;PMS5003;31721;41.740;-88.000;2023-07-31T00:09:08;3;3;
45990;PMS5003;31721;41.740;-88.000;2023-07-31T00:11:36;4;4;
45990;PMS5003;31721;41.740;-88.000;2023-07-31T00:14:04;5;4;
45990;PMS5003;31721;41.740;-88.000;2023-07-31T00:16:32;3;3;
45990;PMS5003;31721;41.740;-88.000;2023-07-31T00:19:11;3;3;
45990;PMS5003;31721;41.740;-88.000;2023-07-31T00:21:39;3;3;
45990;PMS5003;31721;41.740;-88.000;2023-07-31T00:24:06;3;3;
45990;PMS5003;31721;41.740;-88.000;2023-07-31T00:26:34;3;3;
45990;PMS5003;31721;41.740;-88.000;2023-07-31T00:29:01;2;2;
45990;PMS5003;31721;41.740;-88.000;2023-07-31T00:31:29;1;1;
45990;PMS5003;31721;41.740;-88.000;2023-07-31T00:33:57;3;3;
45990;PMS5003;31721;41.740;-88.000;2023-07-31T00:36:24;4;4;
45990;PMS5003;31721;41.740;-88.000;2023-07-31T00:38:52;2;2;
45990;PMS5003;31721;41.740;-88.000;2023-07-31T00:41:20;3;3;
45990;PMS5003;31721;41.740;-88.000;2023-07-31T00:43:48;3;3;
45990;PMS5003;31721;41.740;-88.000;2023-07-31T00:46:16;3;3;
45990;PMS5003;31721;41.740;-88.000;2023-07-31T00:48:44;1;1;
45990;PMS5003;31721;41.740;-88.000;2023-07-31T00:51:11;3;3;
45990;PMS5003;31721;41.740;-88.000;2023-07-31T00:53:39;3;3;
45990;PMS5003;31721;41.740;-88.000;2023-07-31T00:56:07;4;3;
45990;PMS5003;31721;41.740;-88.000;2023-07-31T00:58:35;3;3;
45990;PMS5003;31721;41.740;-88.000;2023-07-31T01:01:03;3;3;
45990;PMS5003;31721;41.740;-88.000;2023-07-31T01:03:31;7;5;
45990;PMS5003;31721;41.740;-88.000;2023-07-31T01:06:04;8;8;
45990;PMS5003;31721;41.740;-88.000;2023-07-31T01:08:42;7;7;
45990;PMS5003;31721;41.740;-88.000;2023-07-31T01:11:19;9;7;
45990;PMS5003;31721;41.740;-88.000;2023-07-31T01:13:53;6;6;
45990;PMS5003;31721;41.740;-88.000;2023-07-31T01:16:22;7;7;
45990;PMS5003;31721;41.740;-88.000;2023-07-31T01:18:49;6;6;
45990;PMS5003;31721;41.740;-88.000;2023-07-31T01:21:21;6;6;
45990;PMS5003;31721;41.740;-88.000;2023-07-31T01:24:07;7;7;
45990;PMS5003;31721;41.740;-88.000;2023-07-31T01:26:47;7;7;
45990;PMS5003;31721;41.740;-88.000;2023-07-31T01:29:20;7;6;
45990;PMS5003;31721;41.740;-88.000;2023-07-31T01:31:54;4;4;
45990;PMS5003;31721;41.740;-88.000;2023-07-31T01:34:23;8;7;
45990;PMS5003;31721;41.740;-88.000;2023-07-31T01:36:52;5;5;
45990;PMS5003;31721;41.740;-88.000;2023-07-31T01:39:20;3;3;
45990;PMS5003;31721;41.740;-88.000;2023-07-31T01:41:48;5;5;
45990;PMS5003;31721;41.740;-88.000;2023-07-31T01:44:15;5;5;
45990;PMS5003;31721;41.740;-88.000;2023-07-31T01:46:43;6;4;
45990;PMS5003;31721;41.740;-88.000;2023-07-31T01:49:11;6;6;
45990;PMS5003;31721;41.740;-88.000;2023-07-31T01:51:39;5;5;
45990;PMS5003;31721;41.740;-88.000;2023-07-31T01:54:06;6;6;
45990;PMS5003;31721;41.740;-88.000;2023-07-31T01:56:34;3;3;
45990;PMS5003;31721;41.740;-88.000;2023-07-31T01:59:01;6;5;
45990;PMS5003;31721;41.740;-88.000;2023-07-31T02:01:29;7;5;
45990;PMS5003;31721;41.740;-88.000;2023-07-31T02:03:57;7;5;
45990;PMS5003;31721;41.740;-88.000;2023-07-31T02:06:26;5;5;
45990;PMS5003;31721;41.740;-88.000;2023-07-31T02:08:55;5;5;
45990;PMS5003;31721;41.740;-88.000;2023-07-31T02:11:22;6;6;
45990;PMS5003;31721;41.740;-88.000;2023-07-31T02:13:50;7;7;
45990;PMS5003;31721;41.740;-88.000;2023-07-31T02:16:18;7;7;
45990;PMS5003;31721;41.740;-88.000;2023-07-31T02:18:47;9;7;
45990;PMS5003;31721;41.740;-88.000;2023-07-31T02:21:15;9;7;
45990;PMS5003;31721;41.740;-88.000;2023-07-31T02:23:43;7;7;
45990;PMS5003;31721;41.740;-88.000;2023-07-31T02:26:11;7;7;
45990;PMS5003;31721;41.740;-88.000;2023-07-31T02:28:40;7;5;
45990;PMS5003;31721;41.740;-88.000;2023-07-31T02:31:07;9;9;
45990;PMS5003;31721;41.740;-88.000;2023-07-31T02:33:36;6;5;
45990;PMS5003;31721;41.740;-88.000;2023-07-31T02:36:05;8;8;
45990;PMS5003;31721;41.740;-88.000;2023-07-31T02:38:33;9;7;
45990;PMS5003;31721;41.740;-88.000;2023-07-31T02:41:01;8;7;
45990;PMS5003;31721;41.740;-88.000;2023-07-31T02:43:30;7;5;
45990;PMS5003;31721;41.740;-88.000;2023-07-31T02:45:59;5;5;
45990;PMS5003;31721;41.740;-88.000;2023-07-31T02:48:27;8;6;
45990;PMS5003;31721;41.740;-88.000;2023-07-31T02:50:54;10;8;
45990;PMS5003;31721;41.740;-88.000;2023-07-31T02:53:22;8;8;
45990;PMS5003;31721;41.740;-88.000;2023-07-31T02:55:50;8;6;
45990;PMS5003;31721;41.740;-88.000;2023-07-31T02:58:18;6;6;
45990;PMS5003;31721;41.740;-88.000;2023-07-31T03:00:46;4;4;
45990;PMS5003;31721;41.740;-88.000;2023-07-31T03:03:14;6;6;
45990;PMS5003;31721;41.740;-88.000;2023-07-31T03:05:42;5;5;
45990;PMS5003;31721;41.740;-88.000;2023-07-31T03:08:10;7;6;
45990;PMS5003;31721;41.740;-88.000;2023-07-31T03:10:38;8;6;
45990;PMS5003;31721;41.740;-88.000;2023-07-31T03:13:06;6;6;
45990;PMS5003;31721;41.740;-88.000;2023-07-31T03:15:33;6;6;
45990;PMS5003;31721;41.740;-88.000;2023-07-31T03:18:01;7;7;
45990;PMS5003;31721;41.740;-88.000;2023-07-31T03:20:29;5;5;
45990;PMS5003;31721;41.740;-88.000;2023-07-31T03:22:57;6;6;
45990;PMS5003;31721;41.740;-88.000;2023-07-31T03:25:25;5;5;
45990;PMS5003;31721;41.740;-88.000;2023-07-31T03:27:52;7;6;
45990;PMS5003;31721;41.740;-88.000;2023-07-31T03:30:20;14;13;
45990;PMS5003;31721;41.740;-88.000;2023-07-31T03:32:48;24;24;
45990;PMS5003;31721;41.740;-88.000;2023-07-31T03:35:16;28;28;
45990;PMS5003;31721;41.740;-88.000;2023-07-31T03:37:43;40;40;
45990;PMS5003;31721;41.740;-88.000;2023-07-31T03:40:11;41;40;
45990;PMS5003;31721;41.740;-88.000;2023-07-31T03:42:40;12;12;
45990;PMS5003;31721;41.740;-88.000;2023-07-31T03:45:08;45;44;
45990;PMS5003;31721;41.740;-88.000;2023-07-31T03:47:36;31;31;
45990;PMS5003;31721;41.740;-88.000;2023-07-31T03:50:04;30;28;
45990;PMS5003;31721;41.740;-88.000;2023-07-31T03:52:33;35;34;
45990;PMS5003;31721;41.740;-88.000;2023-07-31T03:55:00;13;13;
45990;PMS5003;31721;41.740;-88.000;2023-07-31T03:57:28;31;31;
45990;PMS5003;31721;41.740;-88.000;2023-07-31T03:59:55;24;24;
45990;PMS5003;31721;41.740;-88.000;2023-07-31T04:02:23;49;49;
45990;PMS5003;31721;41.740;-88.000;2023-07-31T04:04:51;15;13;
45990;PMS5003;31721;41.740;-88.000;2023-07-31T04:07:19;20;20;
45990;PMS5003;31721;41.740;-88.000;2023-07-31T04:09:47;10;10;
45990;PMS5003;31721;41.740;-88.000;2023-07-31T04:12:15;13;10;
45990;PMS5003;31721;41.740;-88.000;2023-07-31T04:14:43;29;27;
45990;PMS5003;31721;41.740;-88.000;2023-07-31T04:17:11;19;19;
45990;PMS5003;31721;41.740;-88.000;2023-07-31T04:19:39;21;21;
45990;PMS5003;31721;41.740;-88.000;2023-07-31T04:22:07;22;22;
45990;PMS5003;31721;41.740;-88.000;2023-07-31T04:24:35;18;16;
45990;PMS5003;31721;41.740;-88.000;2023-07-31T04:27:03;19;17;
45990;PMS5003;31721;41.740;-88.000;2023-07-31T04:29:31;21;21;
45990;PMS5003;31721;41.740;-88.000;2023-07-31T04:32:00;18;16;
45990;PMS5003;31721;41.740;-88.000;2023-07-31T04:34:27;21;19;
45990;PMS5003;31721;41.740;-88.000;2023-07-31T04:36:55;35;35;
45990;PMS5003;31721;41.740;-88.000;2023-07-31T04:39:22;26;26;
45990;PMS5003;31721;41.740;-88.000;2023-07-31T04:41:51;18;18;
45990;PMS5003;31721;41.740;-88.000;2023-07-31T04:44:18;28;26;
45990;PMS5003;31721;41.740;-88.000;2023-07-31T04:46:46;52;52;
45990;PMS5003;31721;41.740;-88.000;2023-07-31T04:49:13;31;30;
45990;PMS5003;31721;41.740;-88.000;2023-07-31T04:51:41;29;29;
45990;PMS5003;31721;41.740;-88.000;2023-07-31T04:54:09;25;25;
45990;PMS5003;31721;41.740;-88.000;2023-07-31T04:56:37;29;29;
45990;PMS5003;31721;41.740;-88.000;2023-07-31T04:59:05;24;24;
45990;PMS5003;31721;41.740;-88.000;2023-07-31T05:01:33;37;36;
45990;PMS5003;31721;41.740;-88.000;2023-07-31T05:04:01;23;21;
45990;PMS5003;31721;41.740;-88.000;2023-07-31T05:06:29;25;23;
45990;PMS5003;31721;41.740;-88.000;2023-07-31T05:08:57;71;67;
45990;PMS5003;31721;41.740;-88.000;2023-07-31T05:11:25;22;22;
45990;PMS5003;31721;41.740;-88.000;2023-07-31T05:13:53;28;27;
45990;PMS5003;31721;41.740;-88.000;2023-07-31T05:16:21;29;29;
45990;PMS5003;31721;41.740;-88.000;2023-07-31T05:18:50;31;31;
45990;PMS5003;31721;41.740;-88.000;2023-07-31T05:21:18;27;27;
45990;PMS5003;31721;41.740;-88.000;2023-07-31T05:23:46;26;26;
45990;PMS5003;31721;41.740;-88.000;2023-07-31T05:26:13;25;24;
45990;PMS5003;31721;41.740;-88.000;2023-07-31T05:28:41;26;26;
45990;PMS5003;31721;41.740;-88.000;2023-07-31T05:31:08;28;24;
45990;PMS5003;31721;41.740;-88.000;2023-07-31T05:33:36;39;39;
45990;PMS5003;31721;41.740;-88.000;2023-07-31T05:36:04;24;24;
45990;PMS5003;31721;41.740;-88.000;2023-07-31T05:38:32;30;29;
45990;PMS5003;31721;41.740;-88.000;2023-07-31T05:40:59;33;32;
45990;PMS5003;31721;41.740;-88.000;2023-07-31T05:43:26;22;22;
45990;PMS5003;31721;41.740;-88.000;2023-07-31T05:45:54;28;28;
45990;PMS5003;31721;41.740;-88.000;2023-07-31T05:48:22;28;27;
45990;PMS5003;31721;41.740;-88.000;2023-07-31T05:50:50;31;30;
45990;PMS5003;31721;41.740;-88.000;2023-07-31T05:53:17;41;40;
45990;PMS5003;31721;41.740;-88.000;2023-07-31T05:55:46;39;38;
45990;PMS5003;31721;41.740;-88.000;2023-07-31T05:58:14;35;35;
45990;PMS5003;31721;41.740;-88.000;2023-07-31T06:00:42;37;37;
45990;PMS5003;31721;41.740;-88.000;2023-07-31T06:03:10;46;44;
45990;PMS5003;31721;41.740;-88.000;2023-07-31T06:05:38;58;57;
45990;PMS5003;31721;41.740;-88.000;2023-07-31T06:08:05;54;52;
45990;PMS5003;31721;41.740;-88.000;2023-07-31T06:10:34;16;16;
45990;PMS5003;31721;41.740;-88.000;2023-07-31T06:13:01;7;6;
45990;PMS5003;31721;41.740;-88.000;2023-07-31T06:15:29;7;7;
45990;PMS5003;31721;41.740;-88.000;2023-07-31T06:17:57;5;5;
45990;PMS5003;31721;41.740;-88.000;2023-07-31T06:20:25;7;7;
45990;PMS5003;31721;41.740;-88.000;2023-07-31T06:22:52;7;7;
45990;PMS5003;31721;41.740;-88.000;2023-07-31T06:25:20;7;6;
45990;PMS5003;31721;41.740;-88.000;2023-07-31T06:27:48;5;4;
45990;PMS5003;31721;41.740;-88.000;2023-07-31T06:30:16;6;5;
45990;PMS5003;31721;41.740;-88.000;2023-07-31T06:32:44;6;6;
45990;PMS5003;31721;41.740;-88.000;2023-07-31T06:35:12;9;7;
45990;PMS5003;31721;41.740;-88.000;2023-07-31T06:37:40;7;6;
45990;PMS5003;31721;41.740;-88.000;2023-07-31T06:40:08;5;5;
45990;PMS5003;31721;41.740;-88.000;2023-07-31T06:42:37;4;4;
45990;PMS5003;31721;41.740;-88.000;2023-07-31T06:45:05;5;4;
45990;PMS5003;31721;41.740;-88.000;2023-07-31T06:47:34;7;5;
45990;PMS5003;31721;41.740;-88.000;2023-07-31T06:50:02;4;4;
45990;PMS5003;31721;41.740;-88.000;2023-07-31T06:52:30;8;5;
45990;PMS5003;31721;41.740;-88.000;2023-07-31T06:55:01;6;6;
45990;PMS5003;31721;41.740;-88.000;2023-07-31T06:57:30;13;11;
45990;PMS5003;31721;41.740;-88.000;2023-07-31T06:59:57;6;6;
45990;PMS5003;31721;41.740;-88.000;2023-07-31T07:02:25;4;4;
45990;PMS5003;31721;41.740;-88.000;2023-07-31T07:04:53;6;6;
45990;PMS5003;31721;41.740;-88.000;2023-07-31T07:07:21;7;5;
45990;PMS5003;31721;41.740;-88.000;2023-07-31T07:09:49;5;4;
45990;PMS5003;31721;41.740;-88.000;2023-07-31T07:12:16;9;9;
45990;PMS5003;31721;41.740;-88.000;2023-07-31T07:14:44;7;6;
45990;PMS5003;31721;41.740;-88.000;2023-07-31T07:17:12;6;5;
45990;PMS5003;31721;41.740;-88.000;2023-07-31T07:19:40;10;7;
45990;PMS5003;31721;41.740;-88.000;2023-07-31T07:22:08;4;4;
45990;PMS5003;31721;41.740;-88.000;2023-07-31T07:24:36;9;9;
45990;PMS5003;31721;41.740;-88.000;2023-07-31T07:27:04;6;6;
45990;PMS5003;31721;41.740;-88.000;2023-07-31T07:29:33;7;6;
45990;PMS5003;31721;41.740;-88.000;2023-07-31T07:32:01;5;5;
45990;PMS5003;31721;41.740;-88.000;2023-07-31T07:34:29;6;6;
45990;PMS5003;31721;41.740;-88.000;2023-07-31T07:36:57;9;7;
45990;PMS5003;31721;41.740;-88.000;2023-07-31T07:39:25;7;7;
45990;PMS5003;31721;41.740;-88.000;2023-07-31T07:41:53;8;7;
45990;PMS5003;31721;41.740;-88.000;2023-07-31T07:44:21;9;7;
45990;PMS5003;31721;41.740;-88.000;2023-07-31T07:46:48;6;6;
45990;PMS5003;31721;41.740;-88.000;2023-07-31T07:49:16;7;6;
45990;PMS5003;31721;41.740;-88.000;2023-07-31T07:51:43;14;11;
45990;PMS5003;31721;41.740;-88.000;2023-07-31T07:54:11;8;6;
45990;PMS5003;31721;41.740;-88.000;2023-07-31T07:56:39;6;6;
45990;PMS5003;31721;41.740;-88.000;2023-07-31T07:59:07;5;5;
45990;PMS5003;31721;41.740;-88.000;2023-07-31T08:01:35;7;7;
45990;PMS5003;31721;41.740;-88.000;2023-07-31T08:04:03;5;5;
45990;PMS5003;31721;41.740;-88.000;2023-07-31T08:06:31;6;5;
45990;PMS5003;31721;41.740;-88.000;2023-07-31T08:08:59;6;6;
45990;PMS5003;31721;41.740;-88.000;2023-07-31T08:11:27;7;7;
45990;PMS5003;31721;41.740;-88.000;2023-07-31T08:13:55;5;4;
45990;PMS5003;31721;41.740;-88.000;2023-07-31T08:16:23;8;7;
45990;PMS5003;31721;41.740;-88.000;2023-07-31T08:18:51;8;7;
45990;PMS5003;31721;41.740;-88.000;2023-07-31T08:21:18;8;8;
45990;PMS5003;31721;41.740;-88.000;2023-07-31T08:23:48;8;7;
45990;PMS5003;31721;41.740;-88.000;2023-07-31T08:26:16;9;4;
45990;PMS5003;31721;41.740;-88.000;2023-07-31T08:28:43;7;5;
45990;PMS5003;31721;41.740;-88.000;2023-07-31T08:31:11;8;8;
45990;PMS5003;31721;41.740;-88.000;2023-07-31T08:33:39;7;6;
45990;PMS5003;31721;41.740;-88.000;2023-07-31T08:36:07;8;7;
45990;PMS5003;31721;41.740;-88.000;2023-07-31T08:38:35;6;6;
45990;PMS5003;31721;41.740;-88.000;2023-07-31T08:41:03;5;5;
45990;PMS5003;31721;41.740;-88.000;2023-07-31T08:43:30;8;7;
45990;PMS5003;31721;41.740;-88.000;2023-07-31T08:45:59;9;5;
45990;PMS5003;31721;41.740;-88.000;2023-07-31T08:48:27;8;6;
45990;PMS5003;31721;41.740;-88.000;2023-07-31T08:50:55;6;5;
45990;PMS5003;31721;41.740;-88.000;2023-07-31T08:53:23;7;6;
45990;PMS5003;31721;41.740;-88.000;2023-07-31T08:55:52;7;6;
45990;PMS5003;31721;41.740;-88.000;2023-07-31T08:58:21;8;6;
45990;PMS5003;31721;41.740;-88.000;2023-07-31T09:00:50;7;7;
45990;PMS5003;31721;41.740;-88.000;2023-07-31T09:03:19;6;5;
45990;PMS5003;31721;41.740;-88.000;2023-07-31T09:05:51;7;7;
45990;PMS5003;31721;41.740;-88.000;2023-07-31T09:08:21;7;6;
45990;PMS5003;31721;41.740;-88.000;2023-07-31T09:10:49;9;8;
45990;PMS5003;31721;41.740;-88.000;2023-07-31T09:13:17;6;6;
45990;PMS5003;31721;41.740;-88.000;2023-07-31T09:15:45;6;5;
45990;PMS5003;31721;41.740;-88.000;2023-07-31T09:18:13;6;6;
45990;PMS5003;31721;41.740;-88.000;2023-07-31T09:20:41;4;4;
45990;PMS5003;31721;41.740;-88.000;2023-07-31T09:23:10;6;6;
45990;PMS5003;31721;41.740;-88.000;2023-07-31T09:25:40;5;5;
45990;PMS5003;31721;41.740;-88.000;2023-07-31T09:28:11;10;6;
45990;PMS5003;31721;41.740;-88.000;2023-07-31T09:30:44;5;5;
45990;PMS5003;31721;41.740;-88.000;2023-07-31T09:33:13;7;4;
45990;PMS5003;31721;41.740;-88.000;2023-07-31T09:35:40;14;13;
45990;PMS5003;31721;41.740;-88.000;2023-07-31T09:38:09;8;6;
45990;PMS5003;31721;41.740;-88.000;2023-07-31T09:40:38;6;6;
45990;PMS5003;31721;41.740;-88.000;2023-07-31T09:43:08;7;6;
45990;PMS5003;31721;41.740;-88.000;2023-07-31T09:45:37;6;6;
45990;PMS5003;31721;41.740;-88.000;2023-07-31T09:48:07;6;4;
45990;PMS5003;31721;41.740;-88.000;2023-07-31T09:50:36;8;6;
45990;PMS5003;31721;41.740;-88.000;2023-07-31T09:53:06;9;6;
45990;PMS5003;31721;41.740;-88.000;2023-07-31T09:55:34;8;8;
45990;PMS5003;31721;41.740;-88.000;2023-07-31T09:58:05;6;6;
45990;PMS5003;31721;41.740;-88.000;2023-07-31T10:00:34;7;6;
45990;PMS5003;31721;41.740;-88.000;2023-07-31T10:03:04;7;6;
45990;PMS5003;31721;41.740;-88.000;2023-07-31T10:05:33;4;4;
45990;PMS5003;31721;41.740;-88.000;2023-07-31T10:08:02;9;7;
45990;PMS5003;31721;41.740;-88.000;2023-07-31T10:10:30;7;6;
45990;PMS5003;31721;41.740;-88.000;2023-07-31T10:12:59;10;8;
45990;PMS5003;31721;41.740;-88.000;2023-07-31T10:15:27;7;7;
45990;PMS5003;31721;41.740;-88.000;2023-07-31T10:17:56;8;6;
45990;PMS5003;31721;41.740;-88.000;2023-07-31T10:20:26;7;5;
45990;PMS5003;31721;41.740;-88.000;2023-07-31T10:22:55;9;8;
45990;PMS5003;31721;41.740;-88.000;2023-07-31T10:25:22;8;7;
45990;PMS5003;31721;41.740;-88.000;2023-07-31T10:27:53;7;6;
45990;PMS5003;31721;41.740;-88.000;2023-07-31T10:30:22;9;6;
45990;PMS5003;31721;41.740;-88.000;2023-07-31T10:32:52;7;7;
45990;PMS5003;31721;41.740;-88.000;2023-07-31T10:35:21;7;6;
45990;PMS5003;31721;41.740;-88.000;2023-07-31T10:37:49;8;8;
45990;PMS5003;31721;41.740;-88.000;2023-07-31T10:40:19;8;8;
45990;PMS5003;31721;41.740;-88.000;2023-07-31T10:42:51;7;6;
45990;PMS5003;31721;41.740;-88.000;2023-07-31T10:45:24;7;7;
45990;PMS5003;31721;41.740;-88.000;2023-07-31T10:47:58;5;5;
45990;PMS5003;31721;41.740;-88.000;2023-07-31T10:50:27;7;7;
45990;PMS5003;31721;41.740;-88.000;2023-07-31T10:52:56;7;7;
45990;PMS5003;31721;41.740;-88.000;2023-07-31T10:55:26;7;7;
45990;PMS5003;31721;41.740;-88.000;2023-07-31T10:57:56;11;8;
45990;PMS5003;31721;41.740;-88.000;2023-07-31T11:00:25;9;8;
45990;PMS5003;31721;41.740;-88.000;2023-07-31T11:02:58;11;7;
45990;PMS5003;31721;41.740;-88.000;2023-07-31T11:05:44;6;6;
45990;PMS5003;31721;41.740;-88.000;2023-07-31T11:08:15;7;7;
45990;PMS5003;31721;41.740;-88.000;2023-07-31T11:10:44;7;7;
45990;PMS5003;31721;41.740;-88.000;2023-07-31T11:13:12;7;6;
45990;PMS5003;31721;41.740;-88.000;2023-07-31T11:15:40;6;6;
45990;PMS5003;31721;41.740;-88.000;2023-07-31T11:18:08;7;7;
45990;PMS5003;31721;41.740;-88.000;2023-07-31T11:20:36;8;7;
45990;PMS5003;31721;41.740;-88.000;2023-07-31T11:23:06;9;9;
45990;PMS5003;31721;41.740;-88.000;2023-07-31T11:25:35;10;9;
45990;PMS5003;31721;41.740;-88.000;2023-07-31T11:28:04;9;8;
45990;PMS5003;31721;41.740;-88.000;2023-07-31T11:30:33;8;8;
45990;PMS5003;31721;41.740;-88.000;2023-07-31T11:33:02;7;7;
45990;PMS5003;31721;41.740;-88.000;2023-07-31T11:35:32;7;6;
45990;PMS5003;31721;41.740;-88.000;2023-07-31T11:38:01;6;6;
45990;PMS5003;31721;41.740;-88.000;2023-07-31T11:40:30;8;6;
45990;PMS5003;31721;41.740;-88.000;2023-07-31T11:42:58;8;8;
45990;PMS5003;31721;41.740;-88.000;2023-07-31T11:45:31;8;8;
45990;PMS5003;31721;41.740;-88.000;2023-07-31T11:48:00;5;5;
45990;PMS5003;31721;41.740;-88.000;2023-07-31T11:50:28;6;6;
45990;PMS5003;31721;41.740;-88.000;2023-07-31T11:53:00;6;6;
45990;PMS5003;31721;41.740;-88.000;2023-07-31T11:55:33;7;7;
45990;PMS5003;31721;41.740;-88.000;2023-07-31T11:58:02;7;6;
45990;PMS5003;31721;41.740;-88.000;2023-07-31T12:00:30;5;5;
45990;PMS5003;31721;41.740;-88.000;2023-07-31T12:02:58;6;6;
45990;PMS5003;31721;41.740;-88.000;2023-07-31T12:05:26;10;10;
45990;PMS5003;31721;41.740;-88.000;2023-07-31T12:07:55;10;10;
45990;PMS5003;31721;41.740;-88.000;2023-07-31T12:10:25;10;8;
45990;PMS5003;31721;41.740;-88.000;2023-07-31T12:12:56;5;5;
45990;PMS5003;31721;41.740;-88.000;2023-07-31T12:15:30;6;6;
45990;PMS5003;31721;41.740;-88.000;2023-07-31T12:18:01;7;7;
45990;PMS5003;31721;41.740;-88.000;2023-07-31T12:20:33;13;13;
45990;PMS5003;31721;41.740;-88.000;2023-07-31T12:23:01;22;21;
45990;PMS5003;31721;41.740;-88.000;2023-07-31T12:25:31;10;10;
45990;PMS5003;31721;41.740;-88.000;2023-07-31T12:28:07;8;6;
45990;PMS5003;31721;41.740;-88.000;2023-07-31T12:30:35;6;5;
45990;PMS5003;31721;41.740;-88.000;2023-07-31T12:33:03;6;6;
45990;PMS5003;31721;41.740;-88.000;2023-07-31T12:35:36;5;5;
45990;PMS5003;31721;41.740;-88.000;2023-07-31T12:38:05;7;5;
45990;PMS5003;31721;41.740;-88.000;2023-07-31T12:40:33;4;4;
45990;PMS5003;31721;41.740;-88.000;2023-07-31T12:43:02;5;5;
45990;PMS5003;31721;41.740;-88.000;2023-07-31T12:45:30;4;4;
45990;PMS5003;31721;41.740;-88.000;2023-07-31T12:47:58;6;6;
45990;PMS5003;31721;41.740;-88.000;2023-07-31T12:50:26;5;5;
45990;PMS5003;31721;41.740;-88.000;2023-07-31T12:52:54;3;3;
45990;PMS5003;31721;41.740;-88.000;2023-07-31T12:55:23;4;4;
45990;PMS5003;31721;41.740;-88.000;2023-07-31T12:57:50;7;6;
45990;PMS5003;31721;41.740;-88.000;2023-07-31T13:00:19;17;17;
45990;PMS5003;31721;41.740;-88.000;2023-07-31T13:02:46;6;6;
45990;PMS5003;31721;41.740;-88.000;2023-07-31T13:05:14;6;6;
45990;PMS5003;31721;41.740;-88.000;2023-07-31T13:07:43;3;3;
45990;PMS5003;31721;41.740;-88.000;2023-07-31T13:10:11;3;3;
45990;PMS5003;31721;41.740;-88.000;2023-07-31T13:12:39;1;1;
45990;PMS5003;31721;41.740;-88.000;2023-07-31T13:15:08;2;2;
45990;PMS5003;31721;41.740;-88.000;2023-07-31T13:17:36;2;2;
45990;PMS5003;31721;41.740;-88.000;2023-07-31T13:20:04;3;2;
45990;PMS5003;31721;41.740;-88.000;2023-07-31T13:22:32;3;2;
45990;PMS5003;31721;41.740;-88.000;2023-07-31T13:25:00;3;3;
45990;PMS5003;31721;41.740;-88.000;2023-07-31T13:27:28;6;3;
45990;PMS5003;31721;41.740;-88.000;2023-07-31T13:29:55;3;3;
45990;PMS5003;31721;41.740;-88.000;2023-07-31T13:32:23;2;2;
45990;PMS5003;31721;41.740;-88.000;2023-07-31T13:34:51;3;3;
45990;PMS5003;31721;41.740;-88.000;2023-07-31T13:37:19;4;4;
45990;PMS5003;31721;41.740;-88.000;2023-07-31T13:39:47;5;4;
45990;PMS5003;31721;41.740;-88.000;2023-07-31T13:42:15;3;3;
45990;PMS5003;31721;41.740;-88.000;2023-07-31T13:44:42;3;3;
45990;PMS5003;31721;41.740;-88.000;2023-07-31T13:47:11;4;4;
45990;PMS5003;31721;41.740;-88.000;2023-07-31T13:49:38;3;3;
45990;PMS5003;31721;41.740;-88.000;2023-07-31T13:52:06;5;3;
45990;PMS5003;31721;41.740;-88.000;2023-07-31T13:54:34;2;2;
45990;PMS5003;31721;41.740;-88.000;2023-07-31T13:57:02;3;3;
45990;PMS5003;31721;41.740;-88.000;2023-07-31T13:59:31;3;3;
45990;PMS5003;31721;41.740;-88.000;2023-07-31T14:01:59;2;2;
45990;PMS5003;31721;41.740;-88.000;2023-07-31T14:04:28;4;3;
45990;PMS5003;31721;41.740;-88.000;2023-07-31T14:06:55;3;3;
45990;PMS5003;31721;41.740;-88.000;2023-07-31T14:09:25;4;3;
45990;PMS5003;31721;41.740;-88.000;2023-07-31T14:11:53;4;3;
45990;PMS5003;31721;41.740;-88.000;2023-07-31T14:14:21;2;2;
45990;PMS5003;31721;41.740;-88.000;2023-07-31T14:16:49;3;3;
45990;PMS5003;31721;41.740;-88.000;2023-07-31T14:19:16;3;3;
45990;PMS5003;31721;41.740;-88.000;2023-07-31T14:21:44;7;5;
45990;PMS5003;31721;41.740;-88.000;2023-07-31T14:24:11;6;5;
45990;PMS5003;31721;41.740;-88.000;2023-07-31T14:26:39;3;3;
45990;PMS5003;31721;41.740;-88.000;2023-07-31T14:29:07;4;4;
45990;PMS5003;31721;41.740;-88.000;2023-07-31T14:31:35;5;4;
45990;PMS5003;31721;41.740;-88.000;2023-07-31T14:34:03;2;1;
45990;PMS5003;31721;41.740;-88.000;2023-07-31T14:36:31;2;2;
45990;PMS5003;31721;41.740;-88.000;2023-07-31T14:39:00;3;3;
45990;PMS5003;31721;41.740;-88.000;2023-07-31T14:41:28;7;5;
45990;PMS5003;31721;41.740;-88.000;2023-07-31T14:43:57;4;2;
45990;PMS5003;31721;41.740;-88.000;2023-07-31T14:46:25;4;4;
45990;PMS5003;31721;41.740;-88.000;2023-07-31T14:48:53;5;3;
45990;PMS5003;31721;41.740;-88.000;2023-07-31T14:51:21;4;4;
45990;PMS5003;31721;41.740;-88.000;2023-07-31T14:53:50;3;3;
45990;PMS5003;31721;41.740;-88.000;2023-07-31T14:56:18;6;4;
45990;PMS5003;31721;41.740;-88.000;2023-07-31T14:58:46;1;1;
45990;PMS5003;31721;41.740;-88.000;2023-07-31T15:01:14;6;6;
45990;PMS5003;31721;41.740;-88.000;2023-07-31T15:03:42;3;3;
45990;PMS5003;31721;41.740;-88.000;2023-07-31T15:06:10;3;3;
45990;PMS5003;31721;41.740;-88.000;2023-07-31T15:08:39;3;3;
45990;PMS5003;31721;41.740;-88.000;2023-07-31T15:11:06;4;4;
45990;PMS5003;31721;41.740;-88.000;2023-07-31T15:13:34;4;4;
45990;PMS5003;31721;41.740;-88.000;2023-07-31T15:16:02;5;5;
45990;PMS5003;31721;41.740;-88.000;2023-07-31T15:18:30;2;2;
45990;PMS5003;31721;41.740;-88.000;2023-07-31T15:20:59;4;4;
45990;PMS5003;31721;41.740;-88.000;2023-07-31T15:23:27;6;5;
45990;PMS5003;31721;41.740;-88.000;2023-07-31T15:25:55;4;4;
45990;PMS5003;31721;41.740;-88.000;2023-07-31T15:28:22;3;3;
45990;PMS5003;31721;41.740;-88.000;2023-07-31T15:30:50;5;4;
45990;PMS5003;31721;41.740;-88.000;2023-07-31T15:33:18;6;3;
45990;PMS5003;31721;41.740;-88.000;2023-07-31T15:35:46;4;4;
45990;PMS5003;31721;41.740;-88.000;2023-07-31T15:38:14;4;4;
45990;PMS5003;31721;41.740;-88.000;2023-07-31T15:40:41;3;3;
45990;PMS5003;31721;41.740;-88.000;2023-07-31T15:43:09;4;4;
45990;PMS5003;31721;41.740;-88.000;2023-07-31T15:45:36;2;2;
45990;PMS5003;31721;41.740;-88.000;2023-07-31T15:48:04;4;4;
45990;PMS5003;31721;41.740;-88.000;2023-07-31T15:50:32;8;6;
45990;PMS5003;31721;41.740;-88.000;2023-07-31T15:53:00;2;2;
45990;PMS5003;31721;41.740;-88.000;2023-07-31T15:55:28;3;2;
45990;PMS5003;31721;41.740;-88.000;2023-07-31T15:57:55;4;4;
45990;PMS5003;31721;41.740;-88.000;2023-07-31T16:00:24;5;5;
45990;PMS5003;31721;41.740;-88.000;2023-07-31T16:02:52;4;4;
45990;PMS5003;31721;41.740;-88.000;2023-07-31T16:05:20;3;2;
45990;PMS5003;31721;41.740;-88.000;2023-07-31T16:07:48;3;3;
45990;PMS5003;31721;41.740;-88.000;2023-07-31T16:10:17;6;5;
45990;PMS5003;31721;41.740;-88.000;2023-07-31T16:12:44;2;2;
45990;PMS5003;31721;41.740;-88.000;2023-07-31T16:15:12;4;3;
45990;PMS5003;31721;41.740;-88.000;2023-07-31T16:17:40;4;4;
45990;PMS5003;31721;41.740;-88.000;2023-07-31T16:20:07;4;4;